This is the latest recevied weather packets stored in our database for station/object WX4ET. If no packets are shown the sender has not sent any weather packets the latest 10 day(s).
| Time | Temp. | Humidity | Pressure | Rain* | Wind** | Luminosity | Snow |
|---|---|---|---|---|---|---|---|
| 1777643983 | 14.44° C | 61% | 1009.7 hPa | 0 mm | - | 501 W/m² | - |
| 1777643680 | 13.89° C | 61% | 1009.8 hPa | 0 mm | - | 406 W/m² | - |
| 1777643377 | 15° C | 58% | 1009.7 hPa | 0 mm | - | 215 W/m² | - |
| 1777643073 | 14.44° C | 60% | 1009.8 hPa | 0 mm | - | 381 W/m² | - |
| 1777642770 | 14.44° C | 57% | 1010.1 hPa | 0 mm | - | 409 W/m² | - |
| 1777642467 | 13.33° C | 59% | 1009.8 hPa | 0 mm | - | 417 W/m² | - |
| 1777642164 | 13.33° C | 62% | 1010 hPa | 0 mm | - | 165 W/m² | - |
| 1777641861 | 13.33° C | 61% | 1009.9 hPa | 0 mm | - | 253 W/m² | - |
| 1777641561 | 13.89° C | 60% | 1009.9 hPa | 0 mm | - | 311 W/m² | - |
| 1777641255 | 13.89° C | 63% | 1009.8 hPa | 0 mm | - | 276 W/m² | - |
| 1777640952 | 13.89° C | 62% | 1009.8 hPa | 0 mm | - | 276 W/m² | - |
| 1777640649 | 13.33° C | 69% | 1009.9 hPa | 0 mm | - | 243 W/m² | - |
| 1777640345 | 12.78° C | 63% | 1009.8 hPa | 0 mm | - | 203 W/m² | - |
| 1777640042 | 13.33° C | 62% | 1009.9 hPa | 0 mm | - | 172 W/m² | - |
| 1777639739 | 12.78° C | 65% | 1009.9 hPa | 0 mm | - | 217 W/m² | - |
| 1777639437 | 12.78° C | 67% | 1009.9 hPa | 0 mm | - | 209 W/m² | - |
| 1777639137 | 11.67° C | 73% | 1010.2 hPa | 0 mm | - | 179 W/m² | - |
| 1777638835 | 11.67° C | 74% | 1010 hPa | 0 mm | - | 148 W/m² | - |
| 1777638530 | 11.11° C | 76% | 1010 hPa | 0 mm | - | 159 W/m² | - |
| 1777638227 | 10.56° C | 78% | 1009.8 hPa | 0 mm | - | 167 W/m² | - |
| 1777637923 | 10° C | 80% | 1009.8 hPa | 0 mm | - | 108 W/m² | - |
| 1777637619 | 9.44° C | 82% | 1009.7 hPa | 0 mm | - | 94 W/m² | - |
| 1777637317 | 8.89° C | 84% | 1009.9 hPa | 0 mm | - | 83 W/m² | - |
| 1777637013 | 8.89° C | 85% | 1009.9 hPa | 0 mm | - | 78 W/m² | - |
| 1777636709 | 8.89° C | 85% | 1009.8 hPa | 0 mm | - | 71 W/m² | - |
* Rain latest hour (hover to see other rain measurements)
** Current wind speed in m/s (hover to see current wind gust speed)